createdAt,value
2022-09-06T00:12:42.185Z,20.3
2022-09-06T00:22:42.525Z,20.2
2022-09-06T00:32:43.531Z,20.1
2022-09-06T00:42:44.225Z,20
2022-09-06T00:52:45.181Z,19.8
2022-09-06T01:02:45.373Z,19.8
2022-09-06T01:12:45.927Z,19.8
2022-09-06T01:22:46.554Z,19.7
2022-09-06T01:42:48.056Z,19.8
2022-09-06T01:52:48.735Z,19.9
2022-09-06T02:02:49.197Z,19.8
2022-09-06T02:12:49.224Z,19.6
2022-09-06T02:22:50.111Z,19.5
2022-09-06T02:32:50.622Z,19.3
2022-09-06T02:52:50.777Z,19.4
2022-09-06T03:02:51.678Z,19.4
2022-09-06T03:12:52.006Z,19.4
2022-09-06T03:32:52.105Z,19.5
2022-09-06T03:52:52.694Z,19.7
2022-09-06T04:02:53.311Z,19.4
2022-09-06T04:32:54.703Z,18.8
2022-09-06T04:42:55.302Z,18.7
2022-09-06T04:52:55.789Z,18.7
2022-09-06T05:02:55.879Z,18.6
2022-09-06T05:12:56.855Z,18.5
2022-09-06T05:42:58.490Z,18.5
2022-09-06T05:52:59.182Z,18.4
2022-09-06T06:02:59.969Z,18.5
2022-09-06T06:13:00.892Z,18.6
2022-09-06T06:23:01.271Z,18.7
2022-09-06T06:33:02.268Z,18.6
2022-09-06T06:43:02.315Z,18.5
2022-09-06T06:53:02.900Z,18.5
2022-09-06T07:13:04.749Z,18.6
2022-09-06T07:33:06.004Z,19.6
2022-09-06T07:43:06.155Z,20.2
2022-09-06T08:13:08.359Z,22.5
2022-09-06T08:33:09.333Z,23.7
2022-09-06T08:43:09.507Z,24.2
2022-09-06T08:53:17.806Z,24.8
2022-09-06T09:03:14.612Z,25.4
2022-09-06T09:13:10.891Z,25.8
2022-09-06T09:23:11.562Z,26.1
2022-09-06T09:33:11.691Z,26.7
2022-09-06T09:43:12.353Z,26.6
2022-09-06T09:53:13.205Z,26.9
2022-09-06T10:03:13.859Z,27
2022-09-06T10:13:14.721Z,27.6
2022-09-06T10:23:15.061Z,27.9
2022-09-06T10:33:15.776Z,28.2
2022-09-06T10:43:15.999Z,28.6
2022-09-06T10:53:16.549Z,28.3
2022-09-06T11:13:17.649Z,29
2022-09-06T11:23:18.028Z,29.3
2022-09-06T11:33:18.729Z,29.5
2022-09-06T11:53:19.657Z,29.6
2022-09-06T12:13:20.813Z,30.5
2022-09-06T12:53:23.684Z,31.9
2022-09-06T13:03:23.863Z,31.2
2022-09-06T13:13:24.854Z,31.4
2022-09-06T13:23:25.552Z,31.1
2022-09-06T13:33:25.671Z,30.9
2022-09-06T13:43:25.845Z,30.1
2022-09-06T13:53:26.505Z,29.6
2022-09-06T14:13:27.651Z,29.7
2022-09-06T14:23:28.368Z,29.8
2022-09-06T14:33:28.902Z,29.8
2022-09-06T15:03:29.776Z,29.6
2022-09-06T15:13:30.224Z,29.5
2022-09-06T15:33:31.397Z,29.3
2022-09-06T16:13:34.755Z,29.1
2022-09-06T16:43:36.019Z,29
2022-09-06T17:03:37.383Z,28.8
2022-09-06T17:33:39.412Z,27.9
2022-09-06T17:43:39.464Z,27.6
2022-09-06T17:53:39.559Z,27.1
2022-09-06T18:13:41.067Z,26.5
2022-09-06T18:23:41.311Z,26
2022-09-06T18:33:42.270Z,25.3
2022-09-06T18:43:43.139Z,24.8
2022-09-06T18:53:44.839Z,24.5
2022-09-06T19:13:44.563Z,23.8
2022-09-06T19:23:45.570Z,23.5
2022-09-06T19:33:45.655Z,23.3
2022-09-06T19:43:45.774Z,23
2022-09-06T19:53:46.637Z,22.9
2022-09-06T20:13:48.187Z,22.5
2022-09-06T20:23:48.710Z,22
2022-09-06T20:33:50.006Z,21.8
2022-09-06T20:43:50.404Z,21.4
2022-09-06T21:03:52.408Z,21.3
2022-09-06T21:23:53.910Z,21.7
2022-09-06T21:33:54.184Z,21.5
2022-09-06T21:43:54.406Z,21.6
2022-09-06T21:53:55.156Z,21.7
2022-09-06T22:13:56.112Z,21.7
2022-09-06T22:23:56.551Z,21.4
2022-09-06T22:33:57.379Z,21.4
2022-09-06T22:43:57.484Z,21.4
2022-09-06T22:53:58.044Z,22
2022-09-06T23:03:58.785Z,22.8
2022-09-06T23:13:59.229Z,22.1
2022-09-06T23:24:00.064Z,21.7
2022-09-06T23:34:00.480Z,21.7
2022-09-06T23:44:01.427Z,21.7
2022-09-06T23:54:02.105Z,21.7
